Time;durP1;ratioP1;P1;durP2;ratioP2;P2;SDS_P1;SDS_P2;PMS_P1;PMS_P2;Temp;Humidity;BMP_temperature;BMP_pressure;BME280_temperature;BME280_humidity;BME280_pressure;Samples;Min_cycle;Max_cycle;Signal;HPM_P1;HPM_P2
2023/05/05 14:40:34;;;;;;;5.63;2.20;;;21.30;82.70;;;;;;5087191;28;20633;-78
2023/05/05 14:43:01;;;;;;;3.03;2.43;;;;;;;;;;5071902;28;21202;-77
2023/05/05 14:45:28;;;;;;;3.70;3.07;;;;;;;;;;5083553;28;20532;-76
2023/05/05 14:47:55;;;;;;;4.03;3.60;;;;;;;;;;5087846;28;20475;-79
2023/05/05 14:50:23;;;;;;;4.73;2.63;;;;;;;;;;5088184;28;20901;-82
2023/05/05 14:52:50;;;;;;;4.40;2.90;;;;;;;;;;5075602;28;20465;-77
2023/05/05 14:55:17;;;;;;;3.33;2.60;;;;;;;;;;5084470;28;20465;-79
2023/05/05 14:57:45;;;;;;;2.67;2.47;;;;;;;;;;5080357;28;20460;-79
2023/05/05 15:00:13;;;;;;;18.43;16.43;;;;;;;;;;5084124;28;20485;-78
2023/05/05 15:02:40;;;;;;;79.27;54.53;;;;;;;;;;5087815;28;21025;-78
2023/05/05 15:05:09;;;;;;;21.40;17.20;;;20.20;94.80;;;;;;5089376;28;20959;-77
2023/05/05 15:07:36;;;;;;;79.40;71.37;;;;;;;;;;5085305;28;20494;-78
2023/05/05 15:10:04;;;;;;;15.20;13.23;;;;;;;;;;5085730;28;20464;-77
2023/05/05 15:12:31;;;;;;;117.67;87.60;;;;;;;;;;5089794;28;20455;-80
2023/05/05 15:14:59;;;;;;;167.23;83.53;;;;;;;;;;5084412;28;20468;-82
2023/05/05 15:17:27;;;;;;;178.20;92.43;;;;;;;;;;5078184;28;20484;-81
2023/05/05 15:19:54;;;;;;;188.93;89.70;;;;;;;;;;5089005;28;20522;-81
2023/05/05 15:22:21;;;;;;;170.80;85.57;;;;;;;;;;5087568;28;20465;-80
2023/05/05 15:24:48;;;;;;;53.10;47.73;;;;;;;;;;5087683;28;20463;-79
2023/05/05 15:27:16;;;;;;;186.80;95.67;;;;;;;;;;5078909;28;20461;-81
2023/05/05 15:29:43;;;;;;;53.70;49.73;;;;;;;;;;5068611;28;20944;-79
2023/05/05 15:32:12;;;;;;;175.63;92.90;;;;;;;;;;5066527;28;20860;-79
2023/05/05 15:34:39;;;;;;;140.03;88.33;;;;;;;;;;5067680;28;20458;-79
2023/05/05 15:37:06;;;;;;;185.93;89.30;;;;;;;;;;5067827;28;20452;-81
2023/05/05 15:39:33;;;;;;;218.13;91.70;;;;;;;;;;5062283;28;20497;-77
2023/05/05 15:42:02;;;;;;;186.43;91.30;;;;;;;;;;5067448;28;20472;-78
2023/05/05 15:44:29;;;;;;;218.23;93.73;;;;;;;;;;5059049;28;20453;-79
2023/05/05 15:46:56;;;;;;;221.67;94.07;;;;;;;;;;5068379;28;20446;-80
2023/05/05 15:49:25;;;;;;;218.43;100.20;;;;;;;;;;5067384;28;20458;-80
2023/05/05 15:51:52;;;;;;;220.67;92.30;;;;;;;;;;5055530;28;20937;-79
2023/05/05 15:54:19;;;;;;;29.67;26.80;;;;;;;;;;5053905;28;20464;-79
2023/05/05 15:56:46;;;;;;;10.80;9.80;;;;;;;;;;5054979;28;20455;-79
2023/05/05 15:59:13;;;;;;;12.00;8.93;;;;;;;;;;5054826;28;20486;-80
2023/05/05 16:01:40;;;;;;;7.57;6.47;;;;;;;;;;5052010;28;20454;-79
2023/05/05 16:04:07;;;;;;;132.33;68.63;;;;;;;;;;5054525;28;20804;-81
2023/05/05 16:06:35;;;;;;;12.63;7.73;;;;;;;;;;5045932;28;20479;-81
2023/05/05 16:09:02;;;;;;;4.30;3.53;;;;;;;;;;5053896;28;20476;-80
2023/05/05 16:11:30;;;;;;;6.10;4.20;;;;;;;;;;5054706;28;20450;-82
2023/05/05 16:13:57;;;;;;;6.80;3.40;;;;;;;;;;5054050;28;20508;-80
2023/05/05 16:16:24;;;;;;;4.00;3.60;;;;;;;;;;5054610;28;20818;-83
2023/05/05 16:18:51;;;;;;;4.23;3.70;;;;;;;;;;5054778;28;20459;-82
2023/05/05 16:21:18;;;;;;;5.37;3.87;;;;;;;;;;5054775;28;20797;-84
2023/05/05 16:23:46;;;;;;;7.87;3.97;;;;;;;;;;5054033;28;20533;-82
2023/05/05 16:26:13;;;;;;;8.00;4.40;;;;;;;;;;5045237;28;20459;-83
2023/05/05 16:28:40;;;;;;;7.43;4.37;;;;;;;;;;5045840;28;20465;-89
2023/05/05 16:31:09;;;;;;;5.70;3.73;;;;;;;;;;5054382;28;20450;-83
2023/05/05 16:33:39;;;;;;;8.10;4.00;;;;;;;;;;5044592;28;20826;-80
2023/05/05 16:36:06;;;;;;;8.70;4.17;;;;;;;;;;5053971;28;20501;-77
2023/05/05 16:38:33;;;;;;;6.70;3.83;;;;;;;;;;5049735;28;20479;-77
2023/05/05 16:41:02;;;;;;;4.43;4.03;;;;;;;;;;5039554;28;20500;-78
2023/05/05 16:43:29;;;;;;;5.70;4.17;;;;;;;;;;5042931;28;20466;-78
2023/05/05 16:45:56;;;;;;;8.00;4.30;;;;;;;;;;5054183;28;20450;-86
2023/05/05 16:48:23;;;;;;;5.37;3.70;;;;;;;;;;5039831;28;20466;-85
2023/05/05 16:50:50;;;;;;;6.03;4.57;;;;;;;;;;5054254;28;20958;-79
2023/05/05 16:53:17;;;;;;;5.17;4.60;;;;;;;;;;5052932;28;20442;-75
2023/05/05 16:55:44;;;;;;;6.63;4.77;;;;;;;;;;5052065;28;20466;-84
2023/05/05 16:58:12;;;;;;;5.60;4.17;;;16.00;99.90;;;;;;5053346;28;20475;-83
2023/05/05 17:00:40;;;;;;;5.53;4.73;;;;;;;;;;5054536;28;20858;-84
2023/05/05 17:03:07;;;;;;;6.77;4.90;;;;;;;;;;5052280;28;20454;-79
2023/05/05 17:05:34;;;;;;;7.33;4.80;;;;;;;;;;5053308;28;20474;-81
2023/05/05 17:08:01;;;;;;;5.63;4.23;;;;;;;;;;5051355;28;20449;-75
2023/05/05 17:10:29;;;;;;;7.60;3.40;;;;;;;;;;5049780;28;20454;-77
2023/05/05 17:12:56;;;;;;;5.37;3.50;;;;;;;;;;5052590;28;20458;-87
2023/05/05 17:15:24;;;;;;;4.50;3.10;;;16.50;99.90;;;;;;5053424;28;20477;-82
2023/05/05 17:17:52;;;;;;;3.43;2.80;;;;;;;;;;5054257;28;20443;-80
2023/05/05 17:20:19;;;;;;;8.30;7.37;;;;;;;;;;5053529;28;20486;-76
2023/05/05 17:22:46;;;;;;;6.13;3.83;;;;;;;;;;5053014;28;20451;-78
2023/05/05 17:25:13;;;;;;;4.33;3.93;;;;;;;;;;5050517;28;20459;-85
2023/05/05 17:27:40;;;;;;;3.77;3.47;;;;;;;;;;5050584;28;20462;-91
2023/05/05 17:30:08;;;;;;;4.70;4.27;;;;;;;;;;5050922;28;20487;-88
2023/05/05 17:32:36;;;;;;;5.93;4.30;;;16.10;99.90;;;;;;5043431;28;20479;-86
2023/05/05 17:35:03;;;;;;;5.67;4.30;;;;;;;;;;5047604;28;20498;-82
2023/05/05 17:37:31;;;;;;;5.63;4.60;;;;;;;;;;5050183;28;20451;-86
2023/05/05 17:39:58;;;;;;;5.73;4.53;;;;;;;;;;5048841;28;20495;-86
2023/05/05 17:42:25;;;;;;;4.43;3.63;;;;;;;;;;5040967;28;20483;-77
2023/05/05 17:44:53;;;;;;;4.00;3.60;;;;;;;;;;5033236;28;20452;-77
2023/05/05 17:47:21;;;;;;;3.03;2.73;;;;;;;;;;5052875;28;20447;-82
2023/05/05 17:49:49;;;;;;;4.10;2.53;;;15.80;99.90;;;;;;5053159;28;20459;-79
2023/05/05 17:52:16;;;;;;;6.90;3.40;;;;;;;;;;5052873;28;20446;-78
2023/05/05 17:54:44;;;;;;;3.63;3.00;;;;;;;;;;5051057;28;20457;-77
2023/05/05 17:57:11;;;;;;;3.57;3.27;;;;;;;;;;5051331;28;20459;-78
2023/05/05 17:59:38;;;;;;;3.00;2.60;;;;;;;;;;5051295;28;20487;-77
2023/05/05 18:02:05;;;;;;;5.10;2.80;;;;;;;;;;5050911;28;20470;-82
2023/05/05 18:04:32;;;;;;;4.43;3.33;;;;;;;;;;5053230;28;20466;-77
2023/05/05 18:07:00;;;;;;;4.03;3.70;;;15.70;99.90;;;;;;5052967;28;20469;-85
2023/05/05 18:09:27;;;;;;;3.67;3.37;;;;;;;;;;5051782;28;20447;-87
2023/05/05 18:11:55;;;;;;;4.03;3.33;;;;;;;;;;5052255;28;20442;-87
2023/05/05 18:14:22;;;;;;;7.93;5.03;;;;;;;;;;5052637;28;20443;-78
2023/05/05 18:16:51;;;;;;;5.23;4.10;;;;;;;;;;5052547;28;20460;-85
2023/05/05 18:19:19;;;;;;;6.13;5.37;;;15.50;99.90;;;;;;5052598;28;20481;-78
2023/05/05 18:21:46;;;;;;;6.37;5.77;;;;;;;;;;5052801;28;20450;-78
2023/05/05 18:24:15;;;;;;;108.77;57.87;;;;;;;;;;5051586;28;20446;-76
2023/05/05 18:26:42;;;;;;;64.70;50.43;;;;;;;;;;5052944;28;20442;-76
2023/05/05 18:29:09;;;;;;;70.47;53.53;;;;;;;;;;5052642;28;20447;-76
2023/05/05 18:31:36;;;;;;;5.73;4.60;;;;;;;;;;5052478;28;20864;-87
2023/05/05 18:34:03;;;;;;;5.13;4.23;;;;;;;;;;5052532;28;20820;-86
2023/05/05 18:36:30;;;;;;;6.13;3.33;;;;;;;;;;5052572;28;20920;-86
2023/05/05 18:38:57;;;;;;;8.37;7.20;;;;;;;;;;5051278;28;20908;-76
2023/05/05 18:41:25;;;;;;;58.63;44.13;;;;;;;;;;5052408;28;21034;-84
2023/05/05 18:43:52;;;;;;;57.23;45.63;;;;;;;;;;5052452;28;20446;-76
2023/05/05 18:46:21;;;;;;;10.90;9.47;;;;;;;;;;5052539;28;20446;-87
2023/05/05 18:48:48;;;;;;;13.00;11.83;;;;;;;;;;5052403;28;20455;-77
2023/05/05 18:51:15;;;;;;;10.33;9.53;;;;;;;;;;5052556;28;20454;-76
2023/05/05 18:53:42;;;;;;;20.13;17.13;;;;;;;;;;5051314;28;20538;-87
2023/05/05 18:56:09;;;;;;;24.43;20.80;;;;;;;;;;5052384;28;20458;-76
2023/05/05 18:58:38;;;;;;;25.73;23.23;;;;;;;;;;5052402;28;20447;-79
2023/05/05 19:01:05;;;;;;;19.70;17.60;;;;;;;;;;5052261;28;20497;-77
2023/05/05 19:03:33;;;;;;;23.37;18.93;;;14.70;99.90;;;;;;5052270;28;20529;-88
2023/05/05 19:06:00;;;;;;;16.90;15.30;;;;;;;;;;5052238;28;20446;-79
2023/05/05 19:08:27;;;;;;;17.73;14.47;;;;;;;;;;5050667;28;20478;-83
2023/05/05 19:10:54;;;;;;;13.80;11.93;;;;;;;;;;5052304;28;20445;-75
2023/05/05 19:13:21;;;;;;;17.33;15.63;;;;;;;;;;5052254;28;20808;-83
2023/05/05 19:15:50;;;;;;;18.20;16.50;;;;;;;;;;5052135;28;20446;-81
2023/05/05 19:18:17;;;;;;;11.57;10.33;;;;;;;;;;5052271;28;20966;-75
2023/05/05 19:20:44;;;;;;;9.97;9.00;;;;;;;;;;5052083;28;20498;-75
2023/05/05 19:23:11;;;;;;;30.87;28.30;;;;;;;;;;5051062;28;20447;-76
2023/05/05 19:25:38;;;;;;;17.23;15.63;;;;;;;;;;5053144;28;20454;-77
2023/05/05 19:28:05;;;;;;;18.93;17.30;;;;;;;;;;5056063;28;20499;-77
2023/05/05 19:30:32;;;;;;;16.40;14.67;;;;;;;;;;5055779;28;20453;-81
2023/05/05 19:33:01;;;;;;;11.23;10.23;;;;;;;;;;5055831;28;20814;-84
2023/05/05 19:35:29;;;;;;;19.43;17.83;;;;;;;;;;5055871;28;20800;-76
2023/05/05 19:37:56;;;;;;;28.83;25.97;;;;;;;;;;5054607;28;20504;-83
2023/05/05 19:40:23;;;;;;;15.87;14.53;;;;;;;;;;5055512;28;20498;-78
2023/05/05 19:42:50;;;;;;;12.00;10.83;;;;;;;;;;5055508;28;20450;-77
2023/05/05 19:45:17;;;;;;;6.87;5.43;;;;;;;;;;5055479;28;20450;-82
2023/05/05 19:47:44;;;;;;;8.57;7.40;;;;;;;;;;5055642;28;20938;-75
2023/05/05 19:50:14;;;;;;;5.00;3.97;;;;;;;;;;5055644;28;20554;-78
2023/05/05 19:52:41;;;;;;;5.17;4.03;;;;;;;;;;5055513;28;20508;-77
2023/05/05 19:55:11;;;;;;;5.10;3.63;;;16.10;99.90;;;;;;5054106;28;20450;-76
2023/05/05 19:57:39;;;;;;;6.90;5.10;;;;;;;;;;5054660;28;20458;-83
2023/05/05 20:00:06;;;;;;;5.13;3.53;;;;;;;;;;5055386;28;20513;-81
2023/05/05 20:02:33;;;;;;;5.47;3.63;;;;;;;;;;5055268;28;20940;-75
2023/05/05 20:05:00;;;;;;;4.73;3.10;;;;;;;;;;5055277;28;20470;-78
2023/05/05 20:07:29;;;;;;;6.80;3.47;;;;;;;;;;5055232;28;20435;-76
2023/05/05 20:09:56;;;;;;;30.13;4.17;;;;;;;;;;5054009;28;20443;-76
2023/05/05 20:12:23;;;;;;;3.90;3.23;;;;;;;;;;5055116;28;20442;-78
2023/05/05 20:14:50;;;;;;;3.50;2.67;;;;;;;;;;5055118;28;20445;-81
2023/05/05 20:17:18;;;;;;;3.10;2.80;;;;;;;;;;5055035;28;20454;-82
2023/05/05 20:19:46;;;;;;;4.53;3.80;;;;;;;;;;5055089;28;20907;-76
2023/05/05 20:22:13;;;;;;;4.07;2.80;;;;;;;;;;5054917;28;20494;-76
2023/05/05 20:24:41;;;;;;;4.70;3.97;;;;;;;;;;5053656;28;20454;-77
2023/05/05 20:27:08;;;;;;;4.37;2.80;;;;;;;;;;5054832;28;20443;-83
2023/05/05 20:29:36;;;;;;;3.87;3.47;;;;;;;;;;5054753;28;20800;-82
2023/05/05 20:32:03;;;;;;;3.70;2.70;;;;;;;;;;5054769;28;20956;-81
2023/05/05 20:34:30;;;;;;;4.53;3.40;;;;;;;;;;5054744;28;20934;-76
2023/05/05 20:36:57;;;;;;;4.17;3.37;;;;;;;;;;5054088;28;20796;-84
2023/05/05 20:39:24;;;;;;;5.47;4.17;;;;;;;;;;5052787;28;20903;-78
2023/05/05 20:41:53;;;;;;;5.27;3.60;;;;;;;;;;5054049;28;20834;-78
2023/05/05 20:44:20;;;;;;;5.63;3.80;;;;;;;;;;5054238;28;20458;-76
2023/05/05 20:46:47;;;;;;;4.57;4.10;;;;;;;;;;5054003;28;20497;-82
2023/05/05 20:49:14;;;;;;;3.23;2.93;;;;;;;;;;5054542;28;20446;-82
2023/05/05 20:51:41;;;;;;;4.60;3.07;;;;;;;;;;5053647;28;20469;-82
2023/05/05 20:54:09;;;;;;;3.43;3.10;;;;;;;;;;5053114;28;20446;-76
2023/05/05 20:56:36;;;;;;;4.77;4.00;;;;;;;;;;5054304;28;20454;-78
2023/05/05 20:59:04;;;;;;;4.00;3.43;;;;;;;;;;5054259;28;20451;-77
2023/05/05 21:01:33;;;;;;;4.60;3.70;;;;;;;;;;5054093;28;20493;-75
2023/05/05 21:04:00;;;;;;;5.00;4.27;;;;;;;;;;5053959;28;21081;-76
2023/05/05 21:06:27;;;;;;;4.73;3.90;;;;;;;;;;5053627;28;20451;-76
2023/05/05 21:08:54;;;;;;;5.80;3.83;;;;;;;;;;5052863;28;20451;-77
2023/05/05 21:11:21;;;;;;;4.00;3.60;;;;;;;;;;5053926;28;20504;-75
2023/05/05 21:13:48;;;;;;;5.23;4.37;;;;;;;;;;5053692;28;20447;-79
2023/05/05 21:16:17;;;;;;;4.87;4.17;;;;;;;;;;5053925;28;20453;-80
2023/05/05 21:18:46;;;;;;;4.10;3.57;;;;;;;;;;5053729;28;20450;-76
2023/05/05 21:21:13;;;;;;;4.23;3.20;;;;;;;;;;5054150;28;20522;-79
2023/05/05 21:23:40;;;;;;;6.00;3.30;;;;;;;;;;5052492;28;20457;-75
2023/05/05 21:26:07;;;;;;;4.23;3.47;;;;;;;;;;5053860;28;20450;-77
2023/05/05 21:28:34;;;;;;;3.63;3.33;;;;;;;;;;5053683;28;20454;-74
2023/05/05 21:31:01;;;;;;;6.00;3.87;;;;;;;;;;5053505;28;20453;-81
2023/05/05 21:33:29;;;;;;;3.00;2.77;;;13.90;99.90;;;;;;5053443;28;20443;-81
2023/05/05 21:35:56;;;;;;;3.53;3.27;;;;;;;;;;5053493;28;20530;-75
2023/05/05 21:38:23;;;;;;;3.03;2.73;;;;;;;;;;5052277;28;20458;-77
2023/05/05 21:40:50;;;;;;;4.00;3.47;;;;;;;;;;5053598;28;20502;-80
2023/05/05 21:43:17;;;;;;;5.23;3.17;;;;;;;;;;5053417;28;20455;-85
2023/05/05 21:45:44;;;;;;;3.30;3.00;;;;;;;;;;5053324;28;20457;-81
2023/05/05 21:48:11;;;;;;;3.70;3.23;;;;;;;;;;5051472;28;20458;-75
2023/05/05 21:50:40;;;;;;;6.10;3.43;;;;;;;;;;5052724;28;20481;-80
2023/05/05 21:53:07;;;;;;;5.70;3.67;;;;;;;;;;5050902;28;20481;-77
2023/05/05 21:55:34;;;;;;;3.10;2.80;;;;;;;;;;5053074;28;20810;-76
2023/05/05 21:58:01;;;;;;;5.17;3.40;;;;;;;;;;5052026;28;20965;-79
2023/05/05 22:00:28;;;;;;;3.57;3.27;;;;;;;;;;5052348;28;20466;-78
2023/05/05 22:02:55;;;;;;;3.40;3.10;;;;;;;;;;5053096;28;20474;-79
2023/05/05 22:05:22;;;;;;;3.60;3.13;;;;;;;;;;5053013;28;20450;-77
2023/05/05 22:07:50;;;;;;;3.60;3.10;;;13.90;99.90;;;;;;5049736;28;20462;-77
2023/05/05 22:10:17;;;;;;;5.73;3.17;;;;;;;;;;5053038;28;20454;-80
2023/05/05 22:12:44;;;;;;;4.50;3.50;;;;;;;;;;5050196;28;20466;-80
2023/05/05 22:15:12;;;;;;;3.63;3.33;;;;;;;;;;5048962;28;20517;-80
2023/05/05 22:17:39;;;;;;;3.93;3.17;;;;;;;;;;5051813;28;20478;-77
2023/05/05 22:20:07;;;;;;;3.57;3.27;;;;;;;;;;5052754;28;20451;-80
2023/05/05 22:22:34;;;;;;;5.13;4.00;;;;;;;;;;5052619;28;20836;-80
2023/05/05 22:25:02;;;;;;;3.30;3.00;;;14.00;99.90;;;;;;5053777;28;20453;-79
2023/05/05 22:27:29;;;;;;;4.03;3.63;;;;;;;;;;5052491;28;20506;-79
2023/05/05 22:29:57;;;;;;;5.60;4.17;;;;;;;;;;5044637;28;20439;-80
2023/05/05 22:32:24;;;;;;;5.03;4.53;;;;;;;;;;5032755;28;20455;-81
2023/05/05 22:34:51;;;;;;;9.20;8.40;;;;;;;;;;5036772;28;20449;-78
2023/05/05 22:37:18;;;;;;;4.77;4.30;;;;;;;;;;5052226;28;20470;-79
2023/05/05 22:39:45;;;;;;;4.40;4.00;;;;;;;;;;5050904;28;21021;-80
2023/05/05 22:42:13;;;;;;;5.13;4.53;;;13.80;99.90;;;;;;5052015;28;20497;-80
2023/05/05 22:44:40;;;;;;;9.43;4.50;;;;;;;;;;5031037;28;20447;-78
2023/05/05 22:47:07;;;;;;;6.47;4.70;;;;;;;;;;5052541;28;20446;-80
2023/05/05 22:49:35;;;;;;;4.23;3.83;;;;;;;;;;5050817;28;21045;-81
2023/05/05 22:52:02;;;;;;;4.07;3.67;;;;;;;;;;5052416;28;20477;-80
2023/05/05 22:54:29;;;;;;;2.80;2.60;;;;;;;;;;5051135;28;20475;-82
2023/05/05 22:56:56;;;;;;;3.27;2.73;;;;;;;;;;5052329;28;20508;-82
2023/05/05 22:59:25;;;;;;;3.03;2.73;;;;;;;;;;5052384;28;20873;-74
2023/05/05 23:01:52;;;;;;;3.47;2.80;;;;;;;;;;5055259;28;20505;-76
2023/05/05 23:04:19;;;;;;;5.30;2.70;;;;;;;;;;5056320;28;20446;-77
2023/05/05 23:06:46;;;;;;;2.70;2.43;;;;;;;;;;5056192;28;20454;-85
2023/05/05 23:09:13;;;;;;;2.70;2.50;;;;;;;;;;5055047;28;20461;-85
2023/05/05 23:11:40;;;;;;;4.30;2.53;;;;;;;;;;5055938;28;20430;-78
2023/05/05 23:14:07;;;;;;;2.70;2.40;;;;;;;;;;5056142;28;20458;-85
2023/05/05 23:16:35;;;;;;;3.27;2.27;;;13.50;99.90;;;;;;5056053;28;20453;-75
2023/05/05 23:19:02;;;;;;;4.17;2.83;;;;;;;;;;5055957;28;20456;-85
2023/05/05 23:21:29;;;;;;;2.20;2.00;;;;;;;;;;5055961;28;20489;-86
2023/05/05 23:23:56;;;;;;;4.17;2.47;;;;;;;;;;5054832;28;20447;-78
2023/05/05 23:26:23;;;;;;;2.47;2.10;;;;;;;;;;5056148;28;20450;-76
2023/05/05 23:28:50;;;;;;;3.07;2.60;;;;;;;;;;5056103;28;20454;-77
2023/05/05 23:31:18;;;;;;;3.83;2.47;;;;;;;;;;5056082;28;20450;-77
2023/05/05 23:33:46;;;;;;;3.63;2.30;;;;;;;;;;5056226;28;20442;-77
2023/05/05 23:36:13;;;;;;;2.43;2.10;;;;;;;;;;5055917;28;20450;-81
2023/05/05 23:38:40;;;;;;;2.40;1.90;;;;;;;;;;5054423;28;20486;-81
2023/05/05 23:41:07;;;;;;;3.67;2.43;;;;;;;;;;5055967;28;20450;-78
2023/05/05 23:43:34;;;;;;;2.30;1.90;;;;;;;;;;5055982;28;20454;-76
2023/05/05 23:46:01;;;;;;;2.90;2.27;;;;;;;;;;5055889;28;20461;-82
2023/05/05 23:48:28;;;;;;;2.47;2.00;;;;;;;;;;5055816;28;20451;-85
2023/05/05 23:50:57;;;;;;;3.70;2.37;;;13.40;99.90;;;;;;5055712;28;20464;-83
2023/05/05 23:53:24;;;;;;;3.03;2.47;;;;;;;;;;5054259;28;20461;-78
2023/05/05 23:55:51;;;;;;;2.23;2.03;;;;;;;;;;5055618;28;20485;-85
2023/05/05 23:58:18;;;;;;;1.90;1.70;;;;;;;;;;5055732;28;20454;-84
